Time;durP1;ratioP1;P1;durP2;ratioP2;P2;SDS_P1;SDS_P2;PMS_P1;PMS_P2;Temp;Humidity;BMP_temperature;BMP_pressure;BME280_temperature;BME280_humidity;BME280_pressure;Samples;Min_cycle;Max_cycle;Signal;HPM_P1;HPM_P2
2022/10/09 00:01:35;;;;;;;7.53;3.45;;;6.00;79.00;;;;;;5015976;28;20026;-63
2022/10/09 00:04:01;;;;;;;6.13;3.20;;;6.00;79.00;;;;;;5012819;28;20147;-65
2022/10/09 00:06:30;;;;;;;10.18;3.70;;;6.00;79.00;;;;;;5010749;28;20501;-65
2022/10/09 00:08:57;;;;;;;11.85;4.40;;;5.90;79.50;;;;;;5007942;28;20036;-64
2022/10/09 00:11:25;;;;;;;8.73;4.57;;;5.90;78.80;;;;;;5011167;28;21664;-65
2022/10/09 00:13:53;;;;;;;6.97;3.60;;;5.90;78.80;;;;;;5010808;28;20057;-64
2022/10/09 00:16:21;;;;;;;14.27;4.40;;;5.90;78.30;;;;;;5016576;28;20030;-65
2022/10/09 00:18:47;;;;;;;19.70;4.38;;;5.90;79.10;;;;;;5017121;28;20107;-66
2022/10/09 00:21:24;;;;;;;8.85;3.70;;;5.80;78.80;;;;;;5009657;28;20022;-64
2022/10/09 00:23:51;;;;;;;7.88;3.88;;;5.80;78.40;;;;;;5009546;28;20033;-64
2022/10/09 00:26:19;;;;;;;10.52;4.50;;;5.80;78.80;;;;;;5006270;28;20103;-65
2022/10/09 00:28:45;;;;;;;9.25;4.43;;;5.80;79.50;;;;;;5013561;28;20045;-64
2022/10/09 00:31:12;;;;;;;10.00;4.15;;;5.70;79.90;;;;;;5010995;28;20029;-64
2022/10/09 00:33:38;;;;;;;10.27;4.07;;;5.60;79.10;;;;;;5005245;28;20478;-64
2022/10/09 00:36:06;;;;;;;13.35;4.80;;;5.60;79.20;;;;;;5008086;28;20478;-65
2022/10/09 00:38:32;;;;;;;14.80;4.65;;;5.50;79.10;;;;;;5015282;28;20059;-64
2022/10/09 00:40:58;;;;;;;13.38;4.47;;;5.50;77.70;;;;;;5003887;28;20032;-64
2022/10/09 00:43:49;;;;;;;12.32;4.18;;;5.50;77.80;;;;;;5007687;28;20041;-65
2022/10/09 00:46:41;;;;;;;13.70;3.80;;;5.70;77.80;;;;;;5000141;28;20489;-65
2022/10/09 00:49:10;;;;;;;12.60;4.10;;;5.90;74.50;;;;;;5002892;28;20034;-64
2022/10/09 00:51:36;;;;;;;10.10;4.35;;;6.30;75.20;;;;;;5004444;28;20029;-64
2022/10/09 00:54:09;;;;;;;10.88;4.22;;;6.60;76.00;;;;;;4998523;28;20030;-64
2022/10/09 00:56:35;;;;;;;13.65;4.53;;;6.60;80.40;;;;;;5018289;28;20026;-65
2022/10/09 00:59:03;;;;;;;11.85;4.55;;;6.60;79.20;;;;;;5006087;28;21047;-64
2022/10/09 01:01:28;;;;;;;14.55;5.43;;;6.90;79.20;;;;;;5010326;28;20033;-65
2022/10/09 01:03:54;;;;;;;11.85;5.07;;;7.00;80.70;;;;;;5005350;28;20032;-64
2022/10/09 01:06:23;;;;;;;14.13;5.25;;;7.20;80.50;;;;;;5006704;28;20053;-64
2022/10/09 01:09:04;;;;;;;14.30;5.32;;;7.30;82.20;;;;;;5004500;28;20146;-65
2022/10/09 01:11:55;;;;;;;12.00;4.68;;;7.30;82.40;;;;;;5002204;28;20107;-65
2022/10/09 01:14:38;;;;;;;11.00;5.00;;;7.40;83.10;;;;;;4998512;28;20394;-64
2022/10/09 01:17:13;;;;;;;14.55;5.00;;;7.40;82.40;;;;;;5008286;28;20143;-65
2022/10/09 01:20:00;;;;;;;17.10;5.07;;;7.40;82.60;;;;;;5002473;28;21905;-65
2022/10/09 01:22:57;;;;;;;15.68;5.70;;;7.50;82.40;;;;;;5003710;28;20084;-64
2022/10/09 01:25:34;;;;;;;13.52;5.28;;;7.60;83.60;;;;;;5000626;28;20044;-64
2022/10/09 01:28:02;;;;;;;9.68;4.90;;;7.50;83.20;;;;;;4992269;28;20053;-64
2022/10/09 01:30:29;;;;;;;11.40;4.80;;;7.60;83.60;;;;;;5003612;28;20018;-64
2022/10/09 01:32:57;;;;;;;13.52;4.93;;;7.60;83.80;;;;;;5012982;28;20026;-64
2022/10/09 01:35:24;;;;;;;19.33;6.53;;;7.70;83.90;;;;;;5004931;28;20026;-64
2022/10/09 01:37:52;;;;;;;14.00;4.90;;;7.60;84.40;;;;;;5014571;28;20330;-64
2022/10/09 01:40:18;;;;;;;17.73;5.53;;;7.70;84.10;;;;;;5001277;28;20026;-64
2022/10/09 01:42:45;;;;;;;14.75;5.75;;;7.70;84.10;;;;;;5004731;28;20029;-65
2022/10/09 01:45:13;;;;;;;10.10;4.70;;;7.70;84.30;;;;;;5007498;28;20515;-65
2022/10/09 01:47:39;;;;;;;11.52;5.10;;;7.80;84.40;;;;;;5014365;28;20842;-64
2022/10/09 01:50:15;;;;;;;16.27;6.57;;;7.80;85.50;;;;;;5004121;28;20041;-64
2022/10/09 01:52:52;;;;;;;15.98;4.72;;;7.70;85.10;;;;;;5008913;28;20506;-64
2022/10/09 01:55:31;;;;;;;16.75;5.43;;;7.70;85.30;;;;;;5012249;28;20643;-64
2022/10/09 01:58:34;;;;;;;11.18;4.40;;;7.70;85.70;;;;;;5008444;28;20076;-64
2022/10/09 02:01:05;;;;;;;11.32;4.25;;;7.60;85.80;;;;;;4980972;28;20054;-64
2022/10/09 02:03:34;;;;;;;11.10;4.35;;;7.60;85.70;;;;;;5010638;28;20033;-64
2022/10/09 02:06:03;;;;;;;11.60;4.88;;;7.70;86.00;;;;;;5004173;28;20351;-64
2022/10/09 02:08:31;;;;;;;11.27;5.10;;;7.70;87.30;;;;;;5004297;28;20056;-65
2022/10/09 02:11:01;;;;;;;11.23;5.00;;;7.60;87.10;;;;;;5003254;28;20030;-64
2022/10/09 02:13:28;;;;;;;12.30;4.82;;;7.60;87.10;;;;;;5003990;28;20034;-64
2022/10/09 02:16:13;;;;;;;14.73;4.93;;;7.60;87.30;;;;;;5003951;28;20718;-65
2022/10/09 02:18:45;;;;;;;10.52;4.63;;;7.60;88.00;;;;;;5006652;28;20327;-65
2022/10/09 02:21:25;;;;;;;12.10;4.82;;;7.50;87.20;;;;;;5004781;28;20127;-65
2022/10/09 02:23:54;;;;;;;11.32;4.78;;;7.50;86.70;;;;;;5004529;28;20111;-64
2022/10/09 02:26:20;;;;;;;15.75;4.63;;;7.50;87.30;;;;;;5017747;28;20033;-64
2022/10/09 02:28:46;;;;;;;16.75;5.07;;;7.50;87.00;;;;;;5031880;28;20014;-64
2022/10/09 02:31:28;;;;;;;13.32;5.63;;;7.50;87.20;;;;;;5005846;28;20030;-64
2022/10/09 02:33:55;;;;;;;13.77;4.93;;;7.50;87.60;;;;;;5006962;28;20029;-63
2022/10/09 02:36:21;;;;;;;13.68;4.90;;;7.50;87.70;;;;;;5006846;28;20033;-64
2022/10/09 02:38:47;;;;;;;14.13;4.97;;;7.50;88.50;;;;;;5006745;28;21019;-66
2022/10/09 02:41:12;;;;;;;18.80;5.40;;;7.40;89.30;;;;;;5004329;28;20029;-64
2022/10/09 02:43:38;;;;;;;18.40;5.88;;;7.40;89.90;;;;;;5004493;28;20061;-64
2022/10/09 02:46:04;;;;;;;17.75;5.72;;;7.40;90.10;;;;;;5004145;28;20419;-64
2022/10/09 02:48:33;;;;;;;10.45;5.18;;;7.40;90.40;;;;;;5007145;28;20064;-64
2022/10/09 02:51:00;;;;;;;11.10;4.20;;;7.30;90.40;;;;;;5007123;28;20029;-65
2022/10/09 02:53:26;;;;;;;13.27;5.50;;;7.20;90.50;;;;;;5006028;28;20021;-64
2022/10/09 02:55:52;;;;;;;16.30;5.28;;;7.20;89.50;;;;;;5008788;28;20060;-65
2022/10/09 02:58:18;;;;;;;10.18;5.10;;;7.20;90.30;;;;;;5012715;28;20033;-65
2022/10/09 03:00:51;;;;;;;11.25;5.40;;;7.20;90.30;;;;;;5009593;28;20426;-65
2022/10/09 03:03:20;;;;;;;12.30;5.22;;;7.10;90.20;;;;;;5003798;28;20152;-64
2022/10/09 03:05:46;;;;;;;13.82;5.13;;;7.10;90.50;;;;;;5001928;28;20033;-64
2022/10/09 03:08:12;;;;;;;12.55;5.25;;;7.00;90.30;;;;;;5011332;28;20034;-65
2022/10/09 03:10:39;;;;;;;14.13;5.38;;;7.00;90.50;;;;;;5002729;28;20021;-65
2022/10/09 03:13:06;;;;;;;14.15;5.38;;;7.00;90.50;;;;;;5008360;28;20423;-64
2022/10/09 03:15:36;;;;;;;12.50;5.10;;;7.00;90.80;;;;;;5013046;28;20034;-65
2022/10/09 03:18:03;;;;;;;14.00;5.30;;;7.00;91.00;;;;;;5006343;28;20057;-63
2022/10/09 03:20:29;;;;;;;14.50;4.88;;;7.00;91.70;;;;;;5004041;28;20060;-65
2022/10/09 03:22:55;;;;;;;12.23;4.78;;;7.00;91.60;;;;;;5004003;28;20045;-64
2022/10/09 03:25:22;;;;;;;12.40;4.95;;;7.00;92.30;;;;;;5004875;28;20060;-65
2022/10/09 03:27:48;;;;;;;11.15;5.20;;;7.00;92.30;;;;;;5011104;28;20029;-64
2022/10/09 03:30:14;;;;;;;13.00;5.53;;;7.00;93.30;;;;;;5004230;28;20030;-64
2022/10/09 03:32:39;;;;;;;11.15;5.05;;;7.00;93.70;;;;;;5012591;28;20025;-64
2022/10/09 03:35:06;;;;;;;14.05;5.15;;;7.00;93.90;;;;;;5004573;28;21745;-65
2022/10/09 03:37:32;;;;;;;15.23;5.13;;;7.00;94.90;;;;;;5005291;28;20045;-64
2022/10/09 03:39:58;;;;;;;11.93;5.05;;;7.10;95.20;;;;;;5006653;28;20061;-64
2022/10/09 03:42:25;;;;;;;13.18;4.90;;;7.10;96.20;;;;;;5009935;28;20057;-64
2022/10/09 03:44:51;;;;;;;13.80;5.13;;;7.10;96.80;;;;;;5011640;28;20033;-64
2022/10/09 03:47:17;;;;;;;13.57;5.05;;;7.20;96.80;;;;;;5002714;28;20037;-64
2022/10/09 03:49:43;;;;;;;9.50;4.88;;;7.20;97.40;;;;;;5005065;28;21530;-64
2022/10/09 03:52:09;;;;;;;12.35;4.50;;;7.10;97.50;;;;;;5008933;28;20022;-64
2022/10/09 03:54:35;;;;;;;13.18;5.10;;;7.20;98.00;;;;;;5007193;28;20359;-64
2022/10/09 03:57:01;;;;;;;12.60;4.72;;;7.20;98.00;;;;;;5009696;28;20037;-64
2022/10/09 03:59:27;;;;;;;12.48;5.03;;;7.20;98.00;;;;;;5007629;28;20041;-64
2022/10/09 04:01:53;;;;;;;11.95;4.78;;;7.20;98.00;;;;;;5008544;28;20155;-64
2022/10/09 04:04:22;;;;;;;17.83;5.38;;;7.10;98.00;;;;;;5001559;28;20312;-64
2022/10/09 04:06:48;;;;;;;15.85;5.28;;;7.10;98.00;;;;;;5008291;28;20029;-64
2022/10/09 04:09:13;;;;;;;10.07;4.90;;;7.00;98.00;;;;;;5003909;28;20029;-64
2022/10/09 04:11:39;;;;;;;10.77;5.00;;;7.10;98.00;;;;;;5001092;28;20029;-64
2022/10/09 04:14:05;;;;;;;11.30;5.10;;;7.00;98.00;;;;;;5003598;28;21464;-64
2022/10/09 04:16:31;;;;;;;11.32;4.63;;;7.10;98.00;;;;;;5009575;28;20025;-64
2022/10/09 04:18:57;;;;;;;12.90;5.47;;;7.10;98.00;;;;;;5001688;28;20076;-64
2022/10/09 04:21:23;;;;;;;11.57;5.47;;;7.10;98.00;;;;;;5006776;28;20072;-64
2022/10/09 04:23:50;;;;;;;12.57;5.32;;;7.10;98.00;;;;;;4999895;28;20042;-64
2022/10/09 04:26:16;;;;;;;11.98;4.75;;;7.10;98.00;;;;;;5007851;28;20159;-65
2022/10/09 04:28:42;;;;;;;12.68;5.30;;;7.00;98.00;;;;;;5008034;28;20025;-64
2022/10/09 04:31:08;;;;;;;14.45;5.20;;;7.00;98.00;;;;;;5006405;28;20030;-64
2022/10/09 04:33:34;;;;;;;13.90;6.10;;;7.10;98.00;;;;;;5004852;28;20036;-64
2022/10/09 04:35:59;;;;;;;12.65;5.72;;;7.00;98.00;;;;;;5008306;28;20049;-64
2022/10/09 04:38:25;;;;;;;14.05;5.50;;;7.00;97.70;;;;;;5004987;28;20049;-66
2022/10/09 04:40:59;;;;;;;15.15;6.13;;;7.00;97.60;;;;;;5005473;28;20041;-65
2022/10/09 04:43:26;;;;;;;11.63;6.13;;;7.00;97.30;;;;;;5013288;28;20480;-64
2022/10/09 04:45:52;;;;;;;14.75;6.30;;;7.10;97.30;;;;;;5004793;28;20128;-65
2022/10/09 04:48:18;;;;;;;12.15;6.13;;;7.00;97.50;;;;;;5001961;28;20030;-64
2022/10/09 04:50:44;;;;;;;16.13;6.20;;;7.10;97.80;;;;;;5001115;28;20318;-64
2022/10/09 04:53:10;;;;;;;17.25;6.18;;;7.10;97.60;;;;;;5011980;28;20029;-64
2022/10/09 04:55:40;;;;;;;19.40;6.50;;;7.10;97.80;;;;;;5009712;28;20033;-64
2022/10/09 04:58:07;;;;;;;13.55;6.60;;;7.20;97.80;;;;;;5004276;28;20026;-64
2022/10/09 05:00:41;;;;;;;13.40;6.78;;;7.20;97.60;;;;;;5009279;28;20068;-64
2022/10/09 05:03:09;;;;;;;;;;;7.20;97.40;;;;;;5009702;28;20050;-65
2022/10/09 05:05:36;;;;;;;17.35;6.95;;;7.20;97.80;;;;;;5005887;28;19924;-65
2022/10/09 05:08:02;;;;;;;12.52;6.43;;;7.20;97.50;;;;;;5005376;28;20037;-64
2022/10/09 05:10:31;;;;;;;14.15;6.90;;;7.30;97.20;;;;;;5005006;28;20537;-65
2022/10/09 05:12:58;;;;;;;15.90;7.45;;;7.30;97.30;;;;;;5031575;28;20339;-65
2022/10/09 05:15:24;;;;;;;17.02;7.47;;;7.30;97.30;;;;;;5021813;28;20430;-65
2022/10/09 05:17:50;;;;;;;13.90;7.50;;;7.40;97.70;;;;;;5026588;28;20065;-64
2022/10/09 05:20:15;;;;;;;15.75;7.25;;;7.30;97.50;;;;;;5011690;28;20037;-65
2022/10/09 05:22:48;;;;;;;14.77;7.80;;;7.30;97.20;;;;;;5019244;28;20028;-64
2022/10/09 05:25:14;;;;;;;22.30;8.27;;;7.30;97.10;;;;;;5006990;28;20062;-64
2022/10/09 05:27:40;;;;;;;16.48;7.25;;;7.30;97.20;;;;;;5007557;28;20068;-64
2022/10/09 05:30:06;;;;;;;15.13;7.18;;;7.20;96.60;;;;;;5006873;28;20038;-64
2022/10/09 05:32:32;;;;;;;11.70;6.78;;;7.30;96.80;;;;;;5020390;28;20036;-64
2022/10/09 05:34:58;;;;;;;16.25;7.38;;;7.20;96.50;;;;;;5011441;28;20033;-64
2022/10/09 05:37:24;;;;;;;18.65;7.35;;;7.20;96.50;;;;;;5006808;28;20443;-65
2022/10/09 05:39:53;;;;;;;19.23;7.60;;;7.20;96.50;;;;;;5014553;28;20037;-64
2022/10/09 05:42:19;;;;;;;13.70;6.47;;;7.20;96.30;;;;;;5013745;28;20029;-64
2022/10/09 05:44:45;;;;;;;15.15;7.95;;;7.20;96.20;;;;;;5008777;28;20139;-65
2022/10/09 05:47:12;;;;;;;15.43;7.50;;;7.20;96.50;;;;;;5002030;28;20032;-65
2022/10/09 05:49:38;;;;;;;15.80;7.03;;;7.20;96.40;;;;;;5012264;28;20437;-63
2022/10/09 05:52:04;;;;;;;14.25;7.38;;;7.20;96.30;;;;;;5009088;28;20201;-64
2022/10/09 05:54:30;;;;;;;16.27;7.22;;;7.20;96.00;;;;;;5009860;28;20021;-64
2022/10/09 05:56:56;;;;;;;12.10;6.93;;;7.20;96.30;;;;;;5010195;28;20100;-64
2022/10/09 05:59:21;;;;;;;15.65;7.00;;;7.20;96.30;;;;;;5005051;28;20126;-64
2022/10/09 06:01:49;;;;;;;12.05;6.85;;;7.20;96.40;;;;;;5014166;28;20338;-64
2022/10/09 06:04:19;;;;;;;15.23;7.45;;;7.10;96.30;;;;;;5007024;28;20092;-64
2022/10/09 06:06:49;;;;;;;15.02;6.88;;;7.20;96.40;;;;;;5006619;28;20152;-65
2022/10/09 06:09:17;;;;;;;17.73;6.90;;;7.30;96.70;;;;;;5001429;28;20434;-64
2022/10/09 06:11:43;;;;;;;12.82;6.70;;;7.30;97.10;;;;;;5013254;28;20033;-64
2022/10/09 06:14:12;;;;;;;14.85;6.68;;;7.30;97.40;;;;;;5020517;28;20029;-64
2022/10/09 06:16:40;;;;;;;16.92;6.78;;;7.30;97.60;;;;;;5023242;28;20126;-64
2022/10/09 06:19:07;;;;;;;18.58;7.30;;;7.30;98.00;;;;;;5029722;28;20043;-64
2022/10/09 06:21:34;;;;;;;13.18;6.43;;;7.40;98.00;;;;;;5015057;28;20114;-64
2022/10/09 06:24:01;;;;;;;16.25;6.35;;;7.40;98.00;;;;;;5007105;28;20441;-64
2022/10/09 06:26:28;;;;;;;11.68;5.65;;;7.40;98.00;;;;;;5020888;28;20492;-64
2022/10/09 06:28:56;;;;;;;13.75;6.70;;;7.50;98.00;;;;;;5026852;28;20029;-64
2022/10/09 06:31:24;;;;;;;15.27;6.50;;;7.50;98.00;;;;;;5024428;28;20372;-63
2022/10/09 06:33:51;;;;;;;16.63;6.55;;;7.60;98.00;;;;;;5026845;28;20025;-64
2022/10/09 06:36:20;;;;;;;11.35;5.90;;;7.60;98.00;;;;;;5021971;28;20030;-64
2022/10/09 06:38:46;;;;;;;14.32;6.07;;;7.70;98.00;;;;;;5029223;28;20037;-64
2022/10/09 06:41:20;;;;;;;12.88;6.22;;;7.60;98.00;;;;;;5022175;28;20029;-63
2022/10/09 06:43:50;;;;;;;;;;;7.70;98.00;;;;;;5024644;28;20678;-63
2022/10/09 06:46:16;;;;;;;10.80;5.53;;;7.80;98.00;;;;;;5023765;28;19924;-63
2022/10/09 06:48:42;;;;;;;12.65;5.68;;;7.90;98.00;;;;;;5028981;28;20026;-64
2022/10/09 06:51:10;;;;;;;14.98;6.85;;;8.00;98.00;;;;;;5026871;28;20036;-63
2022/10/09 06:54:03;;;;;;;13.57;6.60;;;8.00;98.00;;;;;;5025736;28;20079;-64
2022/10/09 06:56:31;;;;;;;16.85;6.70;;;8.00;98.00;;;;;;5022016;28;20665;-63
2022/10/09 06:59:01;;;;;;;18.60;6.95;;;8.10;98.00;;;;;;5028492;28;20201;-64
2022/10/09 07:01:30;;;;;;;13.88;7.07;;;8.10;98.00;;;;;;5022929;28;20091;-64
2022/10/09 07:04:05;;;;;;;15.38;6.65;;;8.20;98.00;;;;;;5021712;28;20026;-64
2022/10/09 07:06:33;;;;;;;13.88;6.28;;;8.20;98.00;;;;;;5022748;28;20030;-63
2022/10/09 07:09:01;;;;;;;17.73;6.90;;;8.20;98.00;;;;;;5028750;28;20105;-63
2022/10/09 07:11:33;;;;;;;12.82;6.03;;;8.20;98.00;;;;;;5025838;28;20434;-64
2022/10/09 07:14:01;;;;;;;13.48;6.30;;;8.30;98.00;;;;;;5030349;28;20033;-64
2022/10/09 07:16:32;;;;;;;15.30;6.47;;;8.30;98.00;;;;;;5027770;28;20299;-64
2022/10/09 07:19:02;;;;;;;13.27;5.55;;;8.50;98.00;;;;;;5024621;28;20044;-63
2022/10/09 07:21:28;;;;;;;12.50;6.40;;;8.60;98.00;;;;;;5018332;28;20031;-64
2022/10/09 07:23:54;;;;;;;13.60;6.70;;;8.70;98.00;;;;;;5022725;28;20040;-64
2022/10/09 07:26:23;;;;;;;13.55;6.13;;;8.70;98.00;;;;;;5028297;28;20489;-64
2022/10/09 07:28:49;;;;;;;14.73;5.72;;;8.80;98.00;;;;;;5026868;28;20052;-64
2022/10/09 07:31:16;;;;;;;14.07;5.78;;;8.80;98.00;;;;;;5025236;28;20037;-63
2022/10/09 07:33:42;;;;;;;13.13;6.28;;;9.00;98.00;;;;;;5023112;28;20029;-64
2022/10/09 07:36:09;;;;;;;11.68;5.55;;;9.20;98.00;;;;;;5023251;28;20025;-64
2022/10/09 07:38:35;;;;;;;13.18;5.95;;;9.30;98.00;;;;;;5016295;28;20049;-64
2022/10/09 07:41:04;;;;;;;14.50;5.20;;;9.30;98.00;;;;;;5032855;28;20299;-63
2022/10/09 07:43:29;;;;;;;10.48;5.00;;;9.40;98.00;;;;;;5024576;28;20346;-64
2022/10/09 07:45:59;;;;;;;11.95;5.20;;;9.60;98.00;;;;;;5029691;28;20034;-64
2022/10/09 07:48:25;;;;;;;12.68;4.72;;;9.80;98.00;;;;;;5024334;28;20048;-63
2022/10/09 07:50:51;;;;;;;10.60;4.60;;;9.90;98.00;;;;;;5024455;28;20017;-63
2022/10/09 07:53:17;;;;;;;12.07;4.82;;;10.10;98.00;;;;;;5032659;28;20041;-63
2022/10/09 07:55:46;;;;;;;12.55;5.22;;;10.10;97.30;;;;;;5027532;28;20108;-63
2022/10/09 07:58:13;;;;;;;10.82;4.65;;;10.20;97.70;;;;;;5041553;28;20415;-65
2022/10/09 08:00:39;;;;;;;9.35;4.07;;;10.50;96.70;;;;;;5028035;28;20108;-65
2022/10/09 08:03:04;;;;;;;7.25;4.15;;;11.30;95.50;;;;;;5023016;28;20034;-65
2022/10/09 08:05:30;;;;;;;9.30;3.85;;;12.60;92.50;;;;;;5019395;28;20347;-63
2022/10/09 08:07:56;;;;;;;9.55;3.60;;;13.00;88.30;;;;;;5030720;28;20482;-64
2022/10/09 08:10:22;;;;;;;10.77;3.92;;;12.90;87.90;;;;;;5023051;28;20022;-65
2022/10/09 08:12:50;;;;;;;10.40;4.43;;;12.90;88.00;;;;;;5023606;28;20044;-65
2022/10/09 08:15:16;;;;;;;7.93;4.05;;;13.10;87.80;;;;;;5022874;28;20502;-65
2022/10/09 08:17:41;;;;;;;10.07;3.63;;;13.40;86.80;;;;;;5029199;28;20116;-63
2022/10/09 08:20:08;;;;;;;9.20;3.58;;;13.40;86.80;;;;;;5024989;28;20049;-64
2022/10/09 08:22:33;;;;;;;10.48;3.55;;;13.60;86.50;;;;;;5025341;28;20095;-64
2022/10/09 08:24:59;;;;;;;9.30;3.20;;;13.20;87.40;;;;;;5019921;28;20029;-64
2022/10/09 08:27:25;;;;;;;7.07;3.08;;;13.00;87.60;;;;;;5026265;28;20063;-64
2022/10/09 08:29:50;;;;;;;7.57;3.00;;;13.40;88.00;;;;;;5025857;28;20108;-65
2022/10/09 08:32:16;;;;;;;7.97;3.10;;;13.90;86.20;;;;;;5017085;28;20033;-64
2022/10/09 08:34:42;;;;;;;12.60;3.50;;;14.00;85.50;;;;;;5012576;28;20113;-64
2022/10/09 08:37:07;;;;;;;8.82;2.97;;;14.10;84.50;;;;;;5021787;28;20049;-64
2022/10/09 08:39:33;;;;;;;6.88;2.90;;;13.90;85.20;;;;;;5019463;28;20084;-64
2022/10/09 08:42:02;;;;;;;6.13;3.15;;;13.80;85.50;;;;;;5021055;28;20866;-64
2022/10/09 08:44:39;;;;;;;6.85;2.25;;;13.90;85.70;;;;;;5027331;28;20105;-65
2022/10/09 08:47:17;;;;;;;6.80;2.58;;;14.70;84.20;;;;;;5024878;28;20040;-64
2022/10/09 08:49:56;;;;;;;7.78;2.90;;;15.70;81.40;;;;;;5021875;28;20026;-65
2022/10/09 08:52:34;;;;;;;5.72;2.40;;;16.20;79.40;;;;;;5027985;28;21099;-64
2022/10/09 08:55:17;;;;;;;5.93;2.45;;;16.40;79.00;;;;;;5027752;28;20088;-64
2022/10/09 08:57:45;;;;;;;6.25;2.45;;;16.80;78.30;;;;;;5020265;28;20107;-64
2022/10/09 09:00:16;;;;;;;6.72;2.50;;;17.10;77.90;;;;;;5026344;28;20033;-64
2022/10/09 09:03:06;;;;;;;6.22;2.25;;;17.00;77.50;;;;;;5023832;28;20041;-64
2022/10/09 09:05:47;;;;;;;6.22;2.35;;;17.30;77.00;;;;;;5022822;28;20335;-65
2022/10/09 09:08:25;;;;;;;6.55;2.00;;;17.40;76.10;;;;;;5025210;28;20033;-64
2022/10/09 09:11:26;;;;;;;7.38;2.10;;;17.20;76.00;;;;;;5030851;28;20073;-64
2022/10/09 09:14:06;;;;;;;5.47;1.98;;;16.30;77.20;;;;;;5001001;28;20441;-63
2022/10/09 09:16:48;;;;;;;9.07;2.53;;;15.80;79.20;;;;;;5023457;28;20037;-64
2022/10/09 09:19:25;;;;;;;7.35;2.33;;;15.90;79.60;;;;;;5025317;28;20064;-65
2022/10/09 09:21:52;;;;;;;5.65;2.15;;;16.70;78.90;;;;;;5030163;28;20091;-63
2022/10/09 09:24:37;;;;;;;4.97;2.08;;;16.90;77.20;;;;;;5027353;28;20487;-64
2022/10/09 09:27:14;;;;;;;7.28;2.30;;;16.80;77.00;;;;;;5024262;28;20029;-64
2022/10/09 09:29:53;;;;;;;7.60;1.95;;;16.50;78.00;;;;;;5030436;28;20426;-64
2022/10/09 09:32:22;;;;;;;8.63;1.95;;;16.30;77.70;;;;;;5023256;28;20026;-64
2022/10/09 09:34:52;;;;;;;5.25;1.95;;;16.30;78.00;;;;;;5023845;28;20033;-63
2022/10/09 09:37:18;;;;;;;6.53;2.00;;;16.30;76.90;;;;;;5036013;28;20037;-64
2022/10/09 09:39:44;;;;;;;6.53;1.88;;;16.60;77.30;;;;;;5025785;28;20025;-64
2022/10/09 09:42:09;;;;;;;6.45;1.67;;;17.00;76.40;;;;;;5030637;28;20072;-64
2022/10/09 09:44:39;;;;;;;5.97;1.88;;;17.60;75.20;;;;;;5035675;28;20080;-63
2022/10/09 09:47:19;;;;;;;5.80;2.05;;;17.00;75.80;;;;;;5036190;28;20374;-63
2022/10/09 09:49:54;;;;;;;8.65;2.20;;;16.50;76.20;;;;;;5035817;28;20086;-63
2022/10/09 09:52:20;;;;;;;;;;;16.50;77.70;;;;;;5034505;28;20033;-65
2022/10/09 09:54:49;;;;;;;4.90;1.85;;;16.80;75.90;;;;;;5033000;28;19921;-64
2022/10/09 09:57:26;;;;;;;7.18;1.80;;;16.80;75.30;;;;;;5032654;28;20091;-64
2022/10/09 09:59:52;;;;;;;5.18;1.70;;;16.70;76.40;;;;;;5022800;28;20046;-64
2022/10/09 10:02:24;;;;;;;5.22;1.77;;;16.80;76.10;;;;;;5031356;28;20037;-64
2022/10/09 10:05:00;;;;;;;3.83;1.60;;;17.10;75.30;;;;;;5029559;28;20067;-63
2022/10/09 10:07:35;;;;;;;5.97;1.77;;;17.40;75.30;;;;;;5029056;28;20040;-63
2022/10/09 10:10:23;;;;;;;4.35;1.65;;;17.20;74.30;;;;;;5046761;28;20303;-64
2022/10/09 10:12:51;;;;;;;4.97;1.63;;;16.80;75.30;;;;;;5036574;28;20033;-64
2022/10/09 10:15:32;;;;;;;6.10;1.90;;;16.50;75.90;;;;;;5032057;28;20093;-63
2022/10/09 10:18:14;;;;;;;8.20;1.60;;;16.50;75.90;;;;;;5024800;28;20046;-63
2022/10/09 10:20:46;;;;;;;6.00;2.33;;;16.60;77.10;;;;;;5026327;28;20038;-64
2022/10/09 10:23:38;;;;;;;5.45;1.83;;;16.60;76.70;;;;;;5029220;28;20037;-64
2022/10/09 10:26:30;;;;;;;4.30;1.70;;;16.70;76.50;;;;;;5029299;28;20032;-64
2022/10/09 10:29:15;;;;;;;4.88;1.63;;;17.20;76.20;;;;;;5024812;28;20053;-64
2022/10/09 10:31:45;;;;;;;5.25;1.70;;;17.30;74.20;;;;;;5029353;28;20028;-64
2022/10/09 10:35:05;;;;;;;5.35;1.85;;;17.10;74.80;;;;;;5031518;28;20034;-64
2022/10/09 10:37:42;;;;;;;5.35;1.70;;;17.10;74.60;;;;;;5016944;28;20050;-64
2022/10/09 10:40:14;;;;;;;4.70;1.77;;;17.10;74.20;;;;;;5021473;28;20030;-64
2022/10/09 10:42:44;;;;;;;5.95;1.95;;;16.80;74.90;;;;;;5024066;28;20029;-63
2022/10/09 10:45:23;;;;;;;5.00;1.65;;;17.00;75.20;;;;;;5021510;28;20029;-64
2022/10/09 10:47:59;;;;;;;3.60;1.30;;;17.50;74.50;;;;;;5032233;28;20037;-62
2022/10/09 10:50:36;;;;;;;5.20;1.50;;;17.90;73.10;;;;;;5019672;28;20025;-63
2022/10/09 10:53:21;;;;;;;3.35;1.30;;;18.50;73.20;;;;;;5032457;28;20193;-66
2022/10/09 10:56:00;;;;;;;4.53;1.70;;;19.10;71.60;;;;;;5030940;28;20386;-65
2022/10/09 10:58:39;;;;;;;5.53;2.10;;;19.30;72.00;;;;;;5025176;28;20068;-65
2022/10/09 11:01:18;;;;;;;6.03;1.70;;;19.60;70.60;;;;;;5032822;28;20026;-64
2022/10/09 11:04:02;;;;;;;4.53;1.50;;;19.10;70.80;;;;;;5028720;28;20104;-65
2022/10/09 11:06:34;;;;;;;;;;;19.10;71.90;;;;;;5033577;28;20032;-64
2022/10/09 11:09:09;;;;;;;5.50;1.75;;;18.90;71.30;;;;;;5030730;28;19924;-64
2022/10/09 11:11:52;;;;;;;3.72;1.45;;;19.30;73.00;;;;;;5028011;28;20471;-64
2022/10/09 11:14:39;;;;;;;4.38;1.70;;;19.70;70.20;;;;;;5031000;28;20949;-65
2022/10/09 11:17:05;;;;;;;3.80;1.30;;;19.80;70.50;;;;;;5024972;28;20115;-64
2022/10/09 11:20:20;;;;;;;5.93;1.70;;;20.20;72.60;;;;;;5030975;28;20030;-64
2022/10/09 11:23:12;;;;;;;19.33;2.47;;;20.60;70.10;;;;;;5026479;28;20322;-64
2022/10/09 11:26:00;;;;;;;5.20;1.80;;;20.10;68.80;;;;;;5024701;28;20092;-64
2022/10/09 11:28:34;;;;;;;3.53;1.70;;;19.10;71.30;;;;;;5033876;28;20041;-63
2022/10/09 11:31:15;;;;;;;4.20;1.75;;;18.60;70.90;;;;;;5028572;28;20021;-63
2022/10/09 11:33:59;;;;;;;4.65;1.80;;;18.20;72.60;;;;;;5036036;28;20033;-62
2022/10/09 11:36:43;;;;;;;4.35;1.60;;;18.40;73.70;;;;;;5034555;28;20434;-62
2022/10/09 11:39:21;;;;;;;4.28;1.58;;;18.70;72.80;;;;;;5028097;28;20844;-64
2022/10/09 11:41:51;;;;;;;4.35;1.60;;;18.50;71.60;;;;;;5028688;28;20172;-63
2022/10/09 11:44:52;;;;;;;5.15;1.88;;;18.20;74.10;;;;;;5035416;28;20395;-64
2022/10/09 11:47:33;;;;;;;5.60;1.85;;;18.30;72.60;;;;;;5026275;28;20401;-65
2022/10/09 11:50:12;;;;;;;6.28;1.83;;;18.40;73.60;;;;;;5021136;28;20030;-64
2022/10/09 11:52:47;;;;;;;6.47;2.00;;;18.80;72.60;;;;;;5030220;28;20025;-63
2022/10/09 11:55:20;;;;;;;5.63;1.88;;;18.80;72.10;;;;;;5022691;28;20411;-64
2022/10/09 11:57:47;;;;;;;5.30;1.65;;;18.50;72.90;;;;;;5021220;28;20029;-64
2022/10/09 12:00:13;;;;;;;6.05;1.80;;;18.30;72.50;;;;;;5027129;28;20030;-63
2022/10/09 12:02:40;;;;;;;6.53;1.75;;;18.00;73.70;;;;;;5025566;28;20152;-64
2022/10/09 12:05:32;;;;;;;6.15;2.00;;;17.90;73.90;;;;;;5025519;28;20033;-64
2022/10/09 12:08:28;;;;;;;5.13;1.80;;;18.00;73.50;;;;;;5026102;28;20116;-64
2022/10/09 12:10:57;;;;;;;7.05;1.88;;;17.70;74.50;;;;;;5016371;28;20192;-64
2022/10/09 12:13:38;;;;;;;5.68;1.50;;;17.50;74.80;;;;;;5032517;28;20055;-65
2022/10/09 12:16:05;;;;;;;6.20;1.73;;;17.60;75.10;;;;;;5031153;28;20032;-64
2022/10/09 12:18:44;;;;;;;4.63;1.73;;;17.60;75.30;;;;;;5030028;28;20037;-64
2022/10/09 12:21:27;;;;;;;5.63;1.70;;;18.00;76.50;;;;;;5021956;28;20037;-64
2022/10/09 12:23:53;;;;;;;6.65;2.15;;;18.30;75.70;;;;;;5027557;28;20441;-64
2022/10/09 12:26:22;;;;;;;3.08;1.38;;;18.50;75.30;;;;;;5018076;28;20041;-64
2022/10/09 12:28:53;;;;;;;5.03;1.90;;;18.50;75.10;;;;;;5022497;28;20034;-64
2022/10/09 12:31:33;;;;;;;7.30;1.80;;;18.50;74.40;;;;;;5022023;28;20028;-63
2022/10/09 12:34:15;;;;;;;5.28;2.05;;;18.40;74.30;;;;;;5022270;28;20025;-64
2022/10/09 12:36:41;;;;;;;5.68;1.50;;;18.50;74.80;;;;;;5017061;28;20046;-64
2022/10/09 12:39:23;;;;;;;5.70;1.80;;;18.70;73.50;;;;;;5023849;28;20052;-64
2022/10/09 12:41:53;;;;;;;4.07;1.42;;;18.70;75.30;;;;;;5029912;28;20040;-64
2022/10/09 12:44:38;;;;;;;3.88;1.50;;;18.80;73.60;;;;;;5032589;28;20021;-64
2022/10/09 12:47:15;;;;;;;6.28;1.95;;;18.30;74.10;;;;;;5015623;28;20115;-63
2022/10/09 12:49:41;;;;;;;6.28;1.83;;;18.10;74.20;;;;;;5026843;28;20096;-64
2022/10/09 12:52:15;;;;;;;8.18;2.45;;;17.80;75.10;;;;;;5018973;28;20105;-64
2022/10/09 12:54:43;;;;;;;7.38;2.03;;;17.60;76.40;;;;;;5031062;28;20036;-64
2022/10/09 12:57:13;;;;;;;6.63;1.77;;;17.70;77.10;;;;;;5030843;28;20031;-63
2022/10/09 12:59:39;;;;;;;4.05;1.52;;;17.80;76.90;;;;;;5032237;28;20041;-64
2022/10/09 13:02:10;;;;;;;7.18;2.22;;;18.00;76.80;;;;;;5034114;28;20061;-64
2022/10/09 13:04:36;;;;;;;7.72;1.80;;;17.90;77.30;;;;;;5031274;28;20022;-64
2022/10/09 13:07:13;;;;;;;7.72;2.40;;;17.80;78.00;;;;;;5033415;28;20055;-64
2022/10/09 13:09:45;;;;;;;4.80;2.00;;;17.80;76.20;;;;;;5030274;28;20474;-64